MMML/MXL METAR and TAF weather

Enter ICAO airport designator
Station Type Date Time Source
MMML METAR 2019/10/21 01:40 UTC NOAA

MMML 210140Z 33006KT 10SM SKC 27/M06 A2987


Station Type Date Time Source
MMML Decoded METAR 2019/10/21 01:40 UTC NOAA

Mexicali International Airport , Mexico (MMML) 32-38N 117-00W
Oct 20, 2019 - 09:40 PM EDT / 2019.10.21 0140 UTC
Wind: from the NNW (330 degrees) at 7 MPH (6 KT):0
Visibility: 10 mile(s):0
Sky conditions: clear
Temperature: 80 F (27 C)
Dew Point: 21 F (-6 C)
Relative Humidity: 10%
Pressure (altimeter): 29.87 in. Hg (1011 hPa)
ob: MMML 210140Z 33006KT 10SM SKC 27/M06 A2987
cycle: 1

Station Type Date Time Source
MMML TAF 2019/10/20 18:16 UTC NOAA

TAF MMML 201611Z 2018/2118 03015KT P6SM
TEMPO 2019/2023 6SM BLDU
FM210400 36006KT P6SM SKC
FM211600 34010KT P6SM SKC

Example: see airport list